createdAt,value
2019-03-22T00:00:26.858Z,89.65
2019-03-22T00:01:07.462Z,89.65
2019-03-22T00:01:48.043Z,89.47
2019-03-22T00:02:28.624Z,89.47
2019-03-22T00:03:09.186Z,89.84
2019-03-22T00:03:49.752Z,89.37
2019-03-22T00:04:30.315Z,89.47
2019-03-22T00:05:10.899Z,89.65
2019-03-22T00:05:51.529Z,89.65
2019-03-22T00:06:32.113Z,89.56
2019-03-22T00:07:12.688Z,89.47
2019-03-22T00:07:53.253Z,89.47
2019-03-22T00:08:33.814Z,89.84
2019-03-22T00:09:14.374Z,89.65
2019-03-22T00:09:54.931Z,89.56
2019-03-22T00:10:35.564Z,89.47
2019-03-22T00:11:16.185Z,89.37
2019-03-22T00:11:56.856Z,89.75
2019-03-22T00:12:37.411Z,89.84
2019-03-22T00:13:17.974Z,89.94
2019-03-22T00:13:58.529Z,89.56
2019-03-22T00:14:39.100Z,89.47
2019-03-22T00:15:19.652Z,89.65
2019-03-22T00:16:00.420Z,89.84
2019-03-22T00:16:41.053Z,90.22
2019-03-22T00:17:21.615Z,89.94
2019-03-22T00:18:02.182Z,90.32
2019-03-22T00:18:42.744Z,90.22
2019-03-22T00:19:23.317Z,89.94
2019-03-22T00:20:03.878Z,90.13
2019-03-22T00:20:44.471Z,89.94
2019-03-22T00:21:25.004Z,90.22
2019-03-22T00:22:05.585Z,90.32
2019-03-22T00:22:46.145Z,90.13
2019-03-22T00:23:26.702Z,90.61
2019-03-22T00:24:07.267Z,90.42
2019-03-22T00:24:47.829Z,89.94
2019-03-22T00:25:28.391Z,90.42
2019-03-22T00:26:08.968Z,90.13
2019-03-22T00:26:49.549Z,90.22
2019-03-22T00:27:30.118Z,90.32
2019-03-22T00:28:10.767Z,89.94
2019-03-22T00:28:51.318Z,90.22
2019-03-22T00:29:31.919Z,90.22
2019-03-22T00:30:12.487Z,90.03
2019-03-22T00:30:53.053Z,90.32
2019-03-22T00:31:33.635Z,89.65
2019-03-22T00:32:14.216Z,89.94
2019-03-22T00:32:54.807Z,89.47
2019-03-22T00:33:35.331Z,89.65
2019-03-22T00:34:15.893Z,89.65
2019-03-22T00:34:56.458Z,90.32
2019-03-22T00:35:37.019Z,89.94
2019-03-22T00:36:17.572Z,90.42
2019-03-22T00:36:58.153Z,89.94
2019-03-22T00:37:38.717Z,90.13
2019-03-22T00:38:19.298Z,90.13
2019-03-22T00:38:59.877Z,90.22
2019-03-22T00:39:40.442Z,90.03
2019-03-22T00:40:21.018Z,90.03
2019-03-22T00:41:01.573Z,90.22
2019-03-22T00:41:42.137Z,90.22
2019-03-22T00:42:22.788Z,90.32
2019-03-22T00:43:03.406Z,90.32
2019-03-22T00:43:43.992Z,90.22
2019-03-22T00:44:24.571Z,90.22
2019-03-22T00:45:05.133Z,89.94
2019-03-22T00:45:45.690Z,90.03
2019-03-22T00:46:26.243Z,90.61
2019-03-22T00:47:06.797Z,90.51
2019-03-22T00:47:47.352Z,90.42
2019-03-22T00:48:27.907Z,90.32
2019-03-22T00:49:08.503Z,90.7
2019-03-22T00:49:49.064Z,90.51
2019-03-22T00:50:29.639Z,90.51
2019-03-22T00:51:10.207Z,90.61
2019-03-22T00:51:50.758Z,90.42
2019-03-22T00:52:31.314Z,90.51
2019-03-22T00:53:11.877Z,90.32
2019-03-22T00:53:52.427Z,90.7
2019-03-22T00:54:33.005Z,90.99
2019-03-22T00:55:13.566Z,90.99
2019-03-22T00:55:54.165Z,90.8
2019-03-22T00:56:34.696Z,91.08
2019-03-22T00:57:15.250Z,91.17
2019-03-22T00:57:56.287Z,90.89
2019-03-22T00:58:36.871Z,91.08
2019-03-22T00:59:17.421Z,91.08
2019-03-22T00:59:57.990Z,90.8
2019-03-22T01:00:38.542Z,91.17
2019-03-22T01:01:19.112Z,90.89
2019-03-22T01:01:59.674Z,91.46
2019-03-22T01:02:40.245Z,91.17
2019-03-22T01:03:20.802Z,91.27
2019-03-22T01:04:01.372Z,91.27
2019-03-22T01:04:41.960Z,91.56
2019-03-22T01:05:22.507Z,91.17
2019-03-22T01:06:03.080Z,91.46
2019-03-22T01:06:43.637Z,91.46
2019-03-22T01:07:24.209Z,91.46
2019-03-22T01:08:04.820Z,91.56
2019-03-22T01:08:45.381Z,91.37
2019-03-22T01:09:25.951Z,91.31
2019-03-22T01:10:06.522Z,91.17
2019-03-22T01:10:47.082Z,91.65
2019-03-22T01:11:27.659Z,91.08
2019-03-22T01:12:08.230Z,91.31
2019-03-22T01:12:48.791Z,91.13
2019-03-22T01:13:29.358Z,91.08
2019-03-22T01:14:09.920Z,91.7
2019-03-22T01:14:50.482Z,91.08
2019-03-22T01:15:31.093Z,90.84
2019-03-22T01:16:11.604Z,91.13
2019-03-22T01:16:52.168Z,91.13
2019-03-22T01:17:32.741Z,91.31
2019-03-22T01:18:13.308Z,91.41
2019-03-22T01:18:53.873Z,91.31
2019-03-22T01:19:34.435Z,91.03
2019-03-22T01:20:15.003Z,91.22
2019-03-22T01:20:55.571Z,91.13
2019-03-22T01:21:36.139Z,90.94
2019-03-22T01:22:16.693Z,91.03
2019-03-22T01:22:57.259Z,90.84
2019-03-22T01:23:37.816Z,91.22
2019-03-22T01:24:18.385Z,91.31
2019-03-22T01:24:58.954Z,91.41
2019-03-22T01:25:39.523Z,91.51
2019-03-22T01:26:20.076Z,91.31
2019-03-22T01:27:00.635Z,91.27
2019-03-22T01:27:41.557Z,91.22
2019-03-22T01:28:21.784Z,91.7
2019-03-22T01:29:02.342Z,91.41
2019-03-22T01:29:42.907Z,91.13
2019-03-22T01:30:23.499Z,91.31
2019-03-22T01:31:04.052Z,91.22
2019-03-22T01:31:44.638Z,91.31
2019-03-22T01:32:25.198Z,91.7
2019-03-22T01:33:05.764Z,90.84
2019-03-22T01:33:46.386Z,91.22
2019-03-22T01:34:26.973Z,91.13
2019-03-22T01:35:07.536Z,90.94
2019-03-22T01:35:48.093Z,90.94
2019-03-22T01:36:28.717Z,90.84
2019-03-22T01:37:09.262Z,91.6
2019-03-22T01:37:49.819Z,91.7
2019-03-22T01:38:30.402Z,91.51
2019-03-22T01:39:10.970Z,91.31
2019-03-22T01:39:51.539Z,91.41
2019-03-22T01:40:32.113Z,91.51
2019-03-22T01:41:12.677Z,91.51
2019-03-22T01:41:53.241Z,91.31
2019-03-22T01:42:33.794Z,91.22
2019-03-22T01:43:14.345Z,91.41
2019-03-22T01:43:54.885Z,91.6
2019-03-22T01:44:35.457Z,91.6
2019-03-22T01:45:16.016Z,91.41
2019-03-22T01:45:56.598Z,91.31
2019-03-22T01:46:37.160Z,91.6
2019-03-22T01:47:17.737Z,91.6
2019-03-22T01:47:58.308Z,91.51
2019-03-22T01:48:38.870Z,91.51
2019-03-22T01:49:19.474Z,91.41
2019-03-22T01:50:00.027Z,91.31
2019-03-22T01:50:40.616Z,91.6
2019-03-22T01:51:21.180Z,91.51
2019-03-22T01:52:01.742Z,91.13
2019-03-22T01:52:42.292Z,91.7
2019-03-22T01:53:22.842Z,91.51
2019-03-22T01:54:03.401Z,92.27
2019-03-22T01:54:43.957Z,92.36
2019-03-22T01:55:24.513Z,92.36
2019-03-22T01:56:05.099Z,91.79
2019-03-22T01:56:45.651Z,92.08
2019-03-22T01:57:26.233Z,92.08
2019-03-22T01:58:06.784Z,91.89
2019-03-22T01:58:47.386Z,92.08
2019-03-22T01:59:27.946Z,92.08
2019-03-22T02:00:08.540Z,91.89
2019-03-22T02:00:49.089Z,92.27
2019-03-22T02:01:29.651Z,91.7
2019-03-22T02:02:10.209Z,91.6
2019-03-22T02:02:50.755Z,91.89
2019-03-22T02:03:31.309Z,91.51
2019-03-22T02:04:11.895Z,91.7
2019-03-22T02:04:52.456Z,91.51
2019-03-22T02:05:33.013Z,91.79
2019-03-22T02:06:13.593Z,91.89
2019-03-22T02:06:54.162Z,91.7
2019-03-22T02:07:34.732Z,91.6
2019-03-22T02:08:15.302Z,91.31
2019-03-22T02:08:55.855Z,91.22
2019-03-22T02:09:36.411Z,91.31
2019-03-22T02:10:16.963Z,91.22
2019-03-22T02:10:57.591Z,91.22
2019-03-22T02:11:38.148Z,91.31
2019-03-22T02:12:18.701Z,91.13
2019-03-22T02:12:59.260Z,91.22
2019-03-22T02:13:39.813Z,91.31
2019-03-22T02:14:20.413Z,91.31
2019-03-22T02:15:00.982Z,91.31
2019-03-22T02:15:41.541Z,91.51
2019-03-22T02:16:22.118Z,91.13
2019-03-22T02:17:02.689Z,91.79
2019-03-22T02:17:43.250Z,91.41
2019-03-22T02:18:23.813Z,91.7
2019-03-22T02:19:04.402Z,91.41
2019-03-22T02:19:44.960Z,91.51
2019-03-22T02:20:25.533Z,91.51
2019-03-22T02:21:06.080Z,92.27
2019-03-22T02:21:46.639Z,92.27
2019-03-22T02:22:27.217Z,92.18
2019-03-22T02:23:07.806Z,92.27
2019-03-22T02:23:48.358Z,91.41
2019-03-22T02:24:28.917Z,91.31
2019-03-22T02:25:09.481Z,91.41
2019-03-22T02:25:50.039Z,92.18
2019-03-22T02:26:30.630Z,91.79
2019-03-22T02:27:11.193Z,92.18
2019-03-22T02:27:52.877Z,92.27
2019-03-22T02:28:32.318Z,91.89
2019-03-22T02:29:12.879Z,91.31
2019-03-22T02:29:53.440Z,91.22
2019-03-22T02:30:34.021Z,91.31
2019-03-22T02:31:14.571Z,91.22
2019-03-22T02:31:55.164Z,91.22
2019-03-22T02:32:35.740Z,91.51
2019-03-22T02:33:16.287Z,91.6
2019-03-22T02:33:56.856Z,91.79
2019-03-22T02:34:37.488Z,91.79
2019-03-22T02:35:27.977Z,91.79
2019-03-22T02:35:58.607Z,91.13
2019-03-22T02:36:39.164Z,91.51
2019-03-22T02:37:19.731Z,91.31
2019-03-22T02:38:00.306Z,91.13
2019-03-22T02:38:40.874Z,91.51
2019-03-22T02:39:21.495Z,91.31
2019-03-22T02:40:02.000Z,91.31
2019-03-22T02:40:42.561Z,91.31
2019-03-22T02:41:23.120Z,91.31
2019-03-22T02:42:03.677Z,91.31
2019-03-22T02:42:44.245Z,91.31
2019-03-22T02:43:24.807Z,91.31
2019-03-22T02:44:05.397Z,91.51
2019-03-22T02:44:45.958Z,91.51
2019-03-22T02:45:26.542Z,91.51
2019-03-22T02:46:07.109Z,91.31
2019-03-22T02:46:47.702Z,91.22
2019-03-22T02:47:28.256Z,91.22
2019-03-22T02:48:08.855Z,91.51
2019-03-22T02:48:49.398Z,91.51
2019-03-22T02:49:29.976Z,91.51
2019-03-22T02:50:17.519Z,91.22
2019-03-22T02:50:51.080Z,91.41
2019-03-22T02:51:31.706Z,91.22
2019-03-22T02:52:12.263Z,91.41
2019-03-22T02:52:52.828Z,91.51
2019-03-22T02:53:33.396Z,91.22
2019-03-22T02:54:13.952Z,91.22
2019-03-22T02:54:54.544Z,91.6
2019-03-22T02:55:35.114Z,91.79
2019-03-22T02:56:15.821Z,91.89
2019-03-22T02:56:56.206Z,91.41
2019-03-22T02:57:36.756Z,91.51
2019-03-22T02:58:20.805Z,91.51
2019-03-22T02:58:59.413Z,91.89
2019-03-22T02:59:38.467Z,91.22
2019-03-22T03:00:19.040Z,92.27
2019-03-22T03:00:59.606Z,91.51
2019-03-22T03:01:40.183Z,92.18
2019-03-22T03:02:20.737Z,92.18
2019-03-22T03:03:01.304Z,92.18
2019-03-22T03:03:41.901Z,92.18
2019-03-22T03:04:22.476Z,92.08
2019-03-22T03:05:03.033Z,92.08
2019-03-22T03:05:43.591Z,92.08
2019-03-22T03:06:24.166Z,92.08
2019-03-22T03:07:04.727Z,92.08
2019-03-22T03:07:45.301Z,91.79
2019-03-22T03:08:25.844Z,92.08
2019-03-22T03:09:06.423Z,92.18
2019-03-22T03:09:46.971Z,92.27
2019-03-22T03:10:27.532Z,91.41
2019-03-22T03:11:08.095Z,91.31
2019-03-22T03:11:48.665Z,91.89
2019-03-22T03:12:29.236Z,91.31
2019-03-22T03:13:09.803Z,91.41
2019-03-22T03:13:50.361Z,91.41
2019-03-22T03:14:30.918Z,91.13
2019-03-22T03:15:11.476Z,91.79
2019-03-22T03:15:52.043Z,90.84
2019-03-22T03:16:32.590Z,90.84
2019-03-22T03:17:13.144Z,91.03
2019-03-22T03:17:53.729Z,90.94
2019-03-22T03:18:34.295Z,90.94
2019-03-22T03:19:14.844Z,91.13
2019-03-22T03:19:55.401Z,91.03
2019-03-22T03:20:35.977Z,90.84
2019-03-22T03:21:16.526Z,91.03
2019-03-22T03:21:57.083Z,91.03
2019-03-22T03:22:37.637Z,91.13
2019-03-22T03:23:18.186Z,91.13
2019-03-22T03:23:58.741Z,91.22
2019-03-22T03:24:39.301Z,91.31
2019-03-22T03:25:19.869Z,91.03
2019-03-22T03:26:00.435Z,90.75
2019-03-22T03:26:40.988Z,90.84
2019-03-22T03:27:21.541Z,91.03
2019-03-22T03:28:02.121Z,91.08
2019-03-22T03:28:42.689Z,91.03
2019-03-22T03:29:23.240Z,91.22
2019-03-22T03:30:03.822Z,91.31
2019-03-22T03:30:44.384Z,91.13
2019-03-22T03:31:24.998Z,91.03
2019-03-22T03:32:05.525Z,91.03
2019-03-22T03:32:46.093Z,91.41
2019-03-22T03:33:26.681Z,91.13
2019-03-22T03:34:07.244Z,91.08
2019-03-22T03:34:47.827Z,91.03
2019-03-22T03:35:28.379Z,91.31
2019-03-22T03:36:08.959Z,91.17
2019-03-22T03:36:49.515Z,91.08
2019-03-22T03:37:30.086Z,91.08
2019-03-22T03:38:10.638Z,91.08
2019-03-22T03:38:51.204Z,91.17
2019-03-22T03:39:31.770Z,91.27
2019-03-22T03:40:12.319Z,90.98
2019-03-22T03:40:52.895Z,91.08
2019-03-22T03:41:33.446Z,90.79
2019-03-22T03:42:14.026Z,90.7
2019-03-22T03:42:54.591Z,90.89
2019-03-22T03:43:35.152Z,91.03
2019-03-22T03:44:15.718Z,90.94
2019-03-22T03:44:56.278Z,91.36
2019-03-22T03:45:36.856Z,91.13
2019-03-22T03:46:17.420Z,91.03
2019-03-22T03:46:57.973Z,91.03
2019-03-22T03:47:38.552Z,91.13
2019-03-22T03:48:19.134Z,91.03
2019-03-22T03:48:59.686Z,91.03
2019-03-22T03:49:40.250Z,90.94
2019-03-22T03:50:20.822Z,91.03
2019-03-22T03:51:01.391Z,91.13
2019-03-22T03:51:41.958Z,91.03
2019-03-22T03:52:22.543Z,91.13
2019-03-22T03:53:03.099Z,90.94
2019-03-22T03:53:43.670Z,90.94
2019-03-22T03:54:24.234Z,90.94
2019-03-22T03:55:04.796Z,91.27
2019-03-22T03:55:45.437Z,91.08
2019-03-22T03:56:25.907Z,90.89
2019-03-22T03:57:06.469Z,90.98
2019-03-22T03:57:47.046Z,91.08
2019-03-22T03:58:27.610Z,91.27
2019-03-22T03:59:08.326Z,91.27
2019-03-22T03:59:48.890Z,90.79
2019-03-22T04:00:29.468Z,91.17
2019-03-22T04:01:10.042Z,90.5
2019-03-22T04:01:50.600Z,90.41
2019-03-22T04:02:31.165Z,90.6
2019-03-22T04:03:11.766Z,90.7
2019-03-22T04:03:52.374Z,90.5
2019-03-22T04:04:32.925Z,90.89
2019-03-22T04:05:14.551Z,90.6
2019-03-22T04:05:54.068Z,90.6
2019-03-22T04:06:34.651Z,90.89
2019-03-22T04:07:15.208Z,90.5
2019-03-22T04:07:55.758Z,90.79
2019-03-22T04:08:36.313Z,90.6
2019-03-22T04:09:16.867Z,90.6
2019-03-22T04:09:57.427Z,90.6
2019-03-22T04:10:37.984Z,90.7
2019-03-22T04:11:18.612Z,90.7
2019-03-22T04:11:59.130Z,90.6
2019-03-22T04:12:39.704Z,90.5
2019-03-22T04:13:20.267Z,90.31
2019-03-22T04:14:00.834Z,90.6
2019-03-22T04:14:41.404Z,90.6
2019-03-22T04:15:21.977Z,90.6
2019-03-22T04:16:02.540Z,90.41
2019-03-22T04:16:43.113Z,90.5
2019-03-22T04:17:23.707Z,90.5
2019-03-22T04:18:04.234Z,90.6
2019-03-22T04:18:44.795Z,90.6
2019-03-22T04:19:25.364Z,90.5
2019-03-22T04:20:05.927Z,90.6
2019-03-22T04:20:46.528Z,90.7
2019-03-22T04:21:27.082Z,90.6
2019-03-22T04:22:07.642Z,90.7
2019-03-22T04:22:48.185Z,90.5
2019-03-22T04:23:28.735Z,90.6
2019-03-22T04:24:09.281Z,90.5
2019-03-22T04:24:49.851Z,90.7
2019-03-22T04:25:30.437Z,90.22
2019-03-22T04:26:10.996Z,90.22
2019-03-22T04:26:51.561Z,90.41
2019-03-22T04:27:32.129Z,90.31
2019-03-22T04:28:12.700Z,90.03
2019-03-22T04:29:06.445Z,90.31
2019-03-22T04:29:33.972Z,90.31
2019-03-22T04:30:14.683Z,90.31
2019-03-22T04:30:55.252Z,90.22
2019-03-22T04:31:35.836Z,89.55
2019-03-22T04:32:16.385Z,89.94
2019-03-22T04:32:56.942Z,89.94
2019-03-22T04:33:37.504Z,89.94
2019-03-22T04:34:18.075Z,89.94
2019-03-22T04:34:58.631Z,89.75
2019-03-22T04:35:39.222Z,90.12
2019-03-22T04:36:19.792Z,89.94
2019-03-22T04:37:00.339Z,89.84
2019-03-22T04:37:40.895Z,90.12
2019-03-22T04:38:21.580Z,90.03
2019-03-22T04:39:02.154Z,89.84
2019-03-22T04:39:42.712Z,90.03
2019-03-22T04:40:23.276Z,89.84
2019-03-22T04:41:03.862Z,90.41
2019-03-22T04:41:44.429Z,90.41
2019-03-22T04:42:24.998Z,90.41
2019-03-22T04:43:05.570Z,90.12
2019-03-22T04:43:46.146Z,90.22
2019-03-22T04:44:26.685Z,90.22
2019-03-22T04:45:07.248Z,90.41
2019-03-22T04:45:47.831Z,89.84
2019-03-22T04:46:28.411Z,89.94
2019-03-22T04:47:08.975Z,90.03
2019-03-22T04:47:49.719Z,90.03
2019-03-22T04:48:30.241Z,90.41
2019-03-22T04:49:10.831Z,90.41
2019-03-22T04:49:51.382Z,90.03
2019-03-22T04:50:31.942Z,90.5
2019-03-22T04:51:12.512Z,90.31
2019-03-22T04:51:53.073Z,89.46
2019-03-22T04:52:33.635Z,90.03
2019-03-22T04:53:14.201Z,89.84
2019-03-22T04:53:54.769Z,90.03
2019-03-22T04:54:35.335Z,90.03
2019-03-22T04:55:15.895Z,89.94
2019-03-22T04:55:56.466Z,90.41
2019-03-22T04:56:37.039Z,90.41
2019-03-22T04:57:17.608Z,90.41
2019-03-22T04:57:58.188Z,90.31
2019-03-22T04:58:38.746Z,90.31
2019-03-22T04:59:19.691Z,90.41
2019-03-22T04:59:59.869Z,90.31
2019-03-22T05:00:40.438Z,89.84
2019-03-22T05:01:20.993Z,89.84
2019-03-22T05:02:01.552Z,89.75
2019-03-22T05:02:42.145Z,90.12
2019-03-22T05:03:22.722Z,90.31
2019-03-22T05:04:03.464Z,90.22
2019-03-22T05:04:44.013Z,89.94
2019-03-22T05:05:24.595Z,89.84
2019-03-22T05:06:05.182Z,90.22
2019-03-22T05:06:45.759Z,89.94
2019-03-22T05:07:26.319Z,90.03
2019-03-22T05:08:06.902Z,90.03
2019-03-22T05:08:47.507Z,90.22
2019-03-22T05:09:28.070Z,90.03
2019-03-22T05:10:08.641Z,90.12
2019-03-22T05:10:49.205Z,89.65
2019-03-22T05:11:29.766Z,90.03
2019-03-22T05:12:10.316Z,90.03
2019-03-22T05:12:50.888Z,90.03
2019-03-22T05:13:31.442Z,89.75
2019-03-22T05:14:12.003Z,89.75
2019-03-22T05:14:52.577Z,89.55
2019-03-22T05:15:33.135Z,90.22
2019-03-22T05:16:13.697Z,89.84
2019-03-22T05:16:54.287Z,90.12
2019-03-22T05:17:34.878Z,90.03
2019-03-22T05:18:15.445Z,89.84
2019-03-22T05:18:55.990Z,90.12
2019-03-22T05:19:36.578Z,90.03
2019-03-22T05:20:17.148Z,90.12
2019-03-22T05:20:57.696Z,90.03
2019-03-22T05:21:38.263Z,90.03
2019-03-22T05:22:18.821Z,89.94
2019-03-22T05:22:59.385Z,90.22
2019-03-22T05:23:39.958Z,90.03
2019-03-22T05:24:20.526Z,90.03
2019-03-22T05:25:01.092Z,90.22
2019-03-22T05:25:41.649Z,89.94
2019-03-22T05:26:22.217Z,90.22
2019-03-22T05:27:02.783Z,90.22
2019-03-22T05:27:43.351Z,89.65
2019-03-22T05:28:23.909Z,89.46
2019-03-22T05:29:04.473Z,89.46
2019-03-22T05:29:45.035Z,89.75
2019-03-22T05:30:25.624Z,89.75
2019-03-22T05:31:06.198Z,89.75
2019-03-22T05:31:46.773Z,89.75
2019-03-22T05:32:27.378Z,89.75
2019-03-22T05:33:08.016Z,89.65
2019-03-22T05:33:48.524Z,89.55
2019-03-22T05:34:29.089Z,90.03
2019-03-22T05:35:09.638Z,90.22
2019-03-22T05:35:50.203Z,89.84
2019-03-22T05:36:30.776Z,90.31
2019-03-22T05:37:11.374Z,90.12
2019-03-22T05:37:51.937Z,89.55
2019-03-22T05:38:32.503Z,90.03
2019-03-22T05:39:13.089Z,90.03
2019-03-22T05:39:53.650Z,90.12
2019-03-22T05:40:34.225Z,90.12
2019-03-22T05:41:14.796Z,90.22
2019-03-22T05:41:55.361Z,90.22
2019-03-22T05:42:35.935Z,90.12
2019-03-22T05:43:16.479Z,89.65
2019-03-22T05:43:57.031Z,89.75
2019-03-22T05:44:37.588Z,89.75
2019-03-22T05:45:18.162Z,89.84
2019-03-22T05:45:58.725Z,89.75
2019-03-22T05:46:39.278Z,89.65
2019-03-22T05:47:19.830Z,90.03
2019-03-22T05:48:01.462Z,90.22
2019-03-22T05:48:42.034Z,90.12
2019-03-22T05:49:22.606Z,89.75
2019-03-22T05:50:03.178Z,89.65
2019-03-22T05:50:43.747Z,89.55
2019-03-22T05:51:24.297Z,89.84
2019-03-22T05:52:04.861Z,89.75
2019-03-22T05:52:45.406Z,89.75
2019-03-22T05:53:25.971Z,89.55
2019-03-22T05:54:06.529Z,89.65
2019-03-22T05:54:47.135Z,89.55
2019-03-22T05:55:27.694Z,89.55
2019-03-22T05:56:08.265Z,89.65
2019-03-22T05:56:48.816Z,89.55
2019-03-22T05:57:29.379Z,89.55
2019-03-22T05:58:09.923Z,89.75
2019-03-22T05:58:50.497Z,89.75
2019-03-22T05:59:41.771Z,89.75
2019-03-22T06:00:11.651Z,89.75
2019-03-22T06:00:52.211Z,89.46
2019-03-22T06:01:33.155Z,89.55
2019-03-22T06:02:13.833Z,89.55
2019-03-22T06:02:54.403Z,89.46
2019-03-22T06:03:34.978Z,89.94
2019-03-22T06:04:15.536Z,89.75
2019-03-22T06:04:56.130Z,89.55
2019-03-22T06:05:36.752Z,89.75
2019-03-22T06:06:17.328Z,89.75
2019-03-22T06:06:57.898Z,89.84
2019-03-22T06:07:38.455Z,89.55
2019-03-22T06:08:19.017Z,89.75
2019-03-22T06:08:59.590Z,89.55
2019-03-22T06:09:40.148Z,89.65
2019-03-22T06:10:20.701Z,89.65
2019-03-22T06:11:01.275Z,89.75
2019-03-22T06:11:41.890Z,89.46
2019-03-22T06:12:22.590Z,89.46
2019-03-22T06:13:03.152Z,89.55
2019-03-22T06:13:44.469Z,89.94
2019-03-22T06:14:24.276Z,89.75
2019-03-22T06:15:04.941Z,89.94
2019-03-22T06:15:45.782Z,89.84
2019-03-22T06:16:26.471Z,89.55
2019-03-22T06:17:07.186Z,89.65
2019-03-22T06:17:51.777Z,89.75
2019-03-22T06:18:28.323Z,89.55
2019-03-22T06:19:08.880Z,89.75
2019-03-22T06:19:49.439Z,89.46
2019-03-22T06:20:30.021Z,89.55
2019-03-22T06:21:10.575Z,89.75
2019-03-22T06:21:51.141Z,89.55
2019-03-22T06:22:31.708Z,89.75
2019-03-22T06:23:12.294Z,89.65
2019-03-22T06:23:52.848Z,89.65
2019-03-22T06:24:33.594Z,89.94
2019-03-22T06:25:14.147Z,89.94
2019-03-22T06:25:54.723Z,91.27
2019-03-22T06:26:35.278Z,91.98
2019-03-22T06:27:15.888Z,92.08
2019-03-22T06:27:56.453Z,92.08
2019-03-22T06:28:37.052Z,91.31
2019-03-22T06:29:17.662Z,91.17
2019-03-22T06:29:58.217Z,90.12
2019-03-22T06:30:38.795Z,89.64
2019-03-22T06:31:20.720Z,88.45
2019-03-22T06:31:59.920Z,87.59
2019-03-22T06:32:40.482Z,86.44
2019-03-22T06:33:21.061Z,86.35
2019-03-22T06:34:01.636Z,85.21
2019-03-22T06:34:42.196Z,85.15
2019-03-22T06:35:22.760Z,84.39
2019-03-22T06:36:03.347Z,83.91
2019-03-22T06:36:43.906Z,83.14
2019-03-22T06:37:24.481Z,82.67
2019-03-22T06:38:05.033Z,82.19
2019-03-22T06:38:45.589Z,82.19
2019-03-22T06:39:26.147Z,81.56
2019-03-22T06:40:06.715Z,81.27
2019-03-22T06:40:47.261Z,80.7
2019-03-22T06:41:27.817Z,80.41
2019-03-22T06:42:08.411Z,80.13
2019-03-22T06:42:48.977Z,79.46
2019-03-22T06:43:29.552Z,79.27
2019-03-22T06:44:10.125Z,79.17
2019-03-22T06:44:50.714Z,79.27
2019-03-22T06:45:31.251Z,78.89
2019-03-22T06:46:11.833Z,78.79
2019-03-22T06:46:52.460Z,78.13
2019-03-22T06:47:33.017Z,78.51
2019-03-22T06:48:13.562Z,77.84
2019-03-22T06:48:54.142Z,77.65
2019-03-22T06:49:34.704Z,77.69
2019-03-22T06:50:15.291Z,77.59
2019-03-22T06:50:55.992Z,77.94
2019-03-22T06:51:36.571Z,77.11
2019-03-22T06:52:17.129Z,77.5
2019-03-22T06:52:57.713Z,77.21
2019-03-22T06:53:38.262Z,76.92
2019-03-22T06:54:30.660Z,76.64
2019-03-22T06:54:59.452Z,76.92
2019-03-22T06:55:40.021Z,76.45
2019-03-22T06:56:20.591Z,76.35
2019-03-22T06:57:01.144Z,76.06
2019-03-22T06:57:41.727Z,75.96
2019-03-22T06:58:24.158Z,76.16
2019-03-22T06:59:02.945Z,75.96
2019-03-22T06:59:43.512Z,75.2
2019-03-22T07:00:24.073Z,75.59
2019-03-22T07:01:04.635Z,75.49
2019-03-22T07:01:45.200Z,75.2
2019-03-22T07:02:25.759Z,75.49
2019-03-22T07:03:06.339Z,75.39
2019-03-22T07:03:46.895Z,75.3
2019-03-22T07:04:27.547Z,75.59
2019-03-22T07:05:08.110Z,75.1
2019-03-22T07:05:48.676Z,75.1
2019-03-22T07:06:29.239Z,74.91
2019-03-22T07:07:09.802Z,75.01
2019-03-22T07:07:50.349Z,75.01
2019-03-22T07:08:31.072Z,75.1
2019-03-22T07:09:11.634Z,75.1
2019-03-22T07:09:52.215Z,74.73
2019-03-22T07:10:32.802Z,74.82
2019-03-22T07:11:13.373Z,74.82
2019-03-22T07:11:53.939Z,74.63
2019-03-22T07:12:34.511Z,74.82
2019-03-22T07:13:15.071Z,74.44
2019-03-22T07:13:55.712Z,74.63
2019-03-22T07:14:36.204Z,74.05
2019-03-22T07:15:16.859Z,74.05
2019-03-22T07:15:57.433Z,73.96
2019-03-22T07:16:38.000Z,74.05
2019-03-22T07:17:18.553Z,74.24
2019-03-22T07:17:59.150Z,74.73
2019-03-22T07:18:39.710Z,74.05
2019-03-22T07:19:20.287Z,74.15
2019-03-22T07:20:00.860Z,74.53
2019-03-22T07:20:41.490Z,74.63
2019-03-22T07:21:22.104Z,74.15
2019-03-22T07:22:02.678Z,74.24
2019-03-22T07:22:43.241Z,74.82
2019-03-22T07:23:23.883Z,74.53
2019-03-22T07:24:04.471Z,74.82
2019-03-22T07:24:45.038Z,74.91
2019-03-22T07:25:25.630Z,74.44
2019-03-22T07:26:06.187Z,75.1
2019-03-22T07:26:46.919Z,74.73
2019-03-22T07:27:27.892Z,74.73
2019-03-22T07:28:08.482Z,74.05
2019-03-22T07:28:49.055Z,74.05
2019-03-22T07:29:29.616Z,74.34
2019-03-22T07:30:18.361Z,74.4
2019-03-22T07:30:50.770Z,74.69
2019-03-22T07:31:31.342Z,74.98
2019-03-22T07:32:11.907Z,75.83
2019-03-22T07:32:52.470Z,75.93
2019-03-22T07:33:33.057Z,76.84
2019-03-22T07:34:13.649Z,77.03
2019-03-22T07:34:54.238Z,77.7
2019-03-22T07:35:34.927Z,77.42
2019-03-22T07:36:15.492Z,77.7
2019-03-22T07:36:56.060Z,78.81
2019-03-22T07:37:36.622Z,78.72
2019-03-22T07:38:17.178Z,79.28
2019-03-22T07:38:57.747Z,79.38
2019-03-22T07:39:38.309Z,79.67
2019-03-22T07:40:18.876Z,79.86
2019-03-22T07:40:59.515Z,80.33
2019-03-22T07:41:40.137Z,80.68
2019-03-22T07:42:20.704Z,80.39
2019-03-22T07:43:01.258Z,81.35
2019-03-22T07:43:41.820Z,81.35
2019-03-22T07:44:22.377Z,81.73
2019-03-22T07:45:02.957Z,81.82
2019-03-22T07:45:43.607Z,81.82
2019-03-22T07:46:24.371Z,82.3
2019-03-22T07:47:04.942Z,82.3
2019-03-22T07:47:45.541Z,82.87
2019-03-22T07:48:26.120Z,82.68
2019-03-22T07:49:06.660Z,82.78
2019-03-22T07:49:47.267Z,83.06
2019-03-22T07:50:27.840Z,82.68
2019-03-22T07:51:08.402Z,82.78
2019-03-22T07:51:48.966Z,83.54
2019-03-22T07:52:29.518Z,83.35
2019-03-22T07:53:10.077Z,83.44
2019-03-22T07:53:50.651Z,83.73
2019-03-22T07:54:31.239Z,83.73
2019-03-22T07:55:11.946Z,83.92
2019-03-22T07:55:52.508Z,84.36
2019-03-22T07:56:33.070Z,84.07
2019-03-22T07:57:13.673Z,84.55
2019-03-22T07:57:54.226Z,84.36
2019-03-22T07:58:34.952Z,84.3
2019-03-22T07:59:15.555Z,84.74
2019-03-22T07:59:56.138Z,84.45
2019-03-22T08:00:36.790Z,84.83
2019-03-22T08:01:17.381Z,84.64
2019-03-22T08:01:57.949Z,84.74
2019-03-22T08:02:38.517Z,84.92
2019-03-22T08:03:19.141Z,84.83
2019-03-22T08:03:59.733Z,85.02
2019-03-22T08:04:40.290Z,85.12
2019-03-22T08:05:20.859Z,85.21
2019-03-22T08:06:01.420Z,85.21
2019-03-22T08:06:41.994Z,85.41
2019-03-22T08:07:22.547Z,85.69
2019-03-22T08:08:03.106Z,85.69
2019-03-22T08:08:43.697Z,85.5
2019-03-22T08:09:24.524Z,85.69
2019-03-22T08:10:05.715Z,85.5
2019-03-22T08:10:46.359Z,85.5
2019-03-22T08:11:26.928Z,85.21
2019-03-22T08:12:07.470Z,85.97
2019-03-22T08:12:48.085Z,86.16
2019-03-22T08:13:28.680Z,85.78
2019-03-22T08:14:09.365Z,86.07
2019-03-22T08:14:49.957Z,86.16
2019-03-22T08:15:30.535Z,86.16
2019-03-22T08:16:11.110Z,86.16
2019-03-22T08:16:51.668Z,85.97
2019-03-22T08:17:32.228Z,86.36
2019-03-22T08:18:12.777Z,85.97
2019-03-22T08:18:53.422Z,86.16
2019-03-22T08:19:34.572Z,85.78
2019-03-22T08:20:14.852Z,85.78
2019-03-22T08:20:55.468Z,85.97
2019-03-22T08:21:36.085Z,85.97
2019-03-22T08:22:16.674Z,86.16
2019-03-22T08:22:57.543Z,86.55
2019-03-22T08:23:38.248Z,86.74
2019-03-22T08:24:18.794Z,86.07
2019-03-22T08:24:59.382Z,86.45
2019-03-22T08:25:39.982Z,86.45
2019-03-22T08:26:20.558Z,86.45
2019-03-22T08:27:01.123Z,86.45
2019-03-22T08:27:41.691Z,86.36
2019-03-22T08:28:22.888Z,86.74
2019-03-22T08:29:03.255Z,86.45
2019-03-22T08:29:43.838Z,86.45
2019-03-22T08:30:24.368Z,86.36
2019-03-22T08:31:05.633Z,86.55
2019-03-22T08:31:45.528Z,86.65
2019-03-22T08:32:26.093Z,86.93
2019-03-22T08:33:06.661Z,87.21
2019-03-22T08:33:47.280Z,86.93
2019-03-22T08:34:27.865Z,87.02
2019-03-22T08:35:08.455Z,87.02
2019-03-22T08:35:49.400Z,86.93
2019-03-22T08:36:30.279Z,86.16
2019-03-22T08:37:11.079Z,86.26
2019-03-22T08:37:52.715Z,86.65
2019-03-22T08:38:32.500Z,86.55
2019-03-22T08:39:14.135Z,87.21
2019-03-22T08:39:55.956Z,86.26
2019-03-22T08:40:35.455Z,87.02
2019-03-22T08:41:16.924Z,86.26
2019-03-22T08:41:57.483Z,87.21
2019-03-22T08:42:38.113Z,87.02
2019-03-22T08:43:18.678Z,87.21
2019-03-22T08:43:59.209Z,87.12
2019-03-22T08:44:39.847Z,86.83